sensor_id;sensor_type;location;lat;lon;timestamp;pressure;altitude;pressure_sealevel;temperature
65316;BMP280;51920;53.952;10.292;2022-07-22T00:01:27;101239.94;;;18.46
65316;BMP280;51920;53.952;10.292;2022-07-22T00:03:52;101242.34;;;18.44
65316;BMP280;51920;53.952;10.292;2022-07-22T00:06:18;101244.72;;;18.42
65316;BMP280;51920;53.952;10.292;2022-07-22T00:08:43;101249.50;;;18.38
65316;BMP280;51920;53.952;10.292;2022-07-22T00:11:09;101248.75;;;18.37
65316;BMP280;51920;53.952;10.292;2022-07-22T00:13:34;101255.28;;;18.23
65316;BMP280;51920;53.952;10.292;2022-07-22T00:16:00;101249.44;;;18.21
65316;BMP280;51920;53.952;10.292;2022-07-22T00:18:25;101249.09;;;18.19
65316;BMP280;51920;53.952;10.292;2022-07-22T00:20:51;101248.53;;;18.28
65316;BMP280;51920;53.952;10.292;2022-07-22T00:23:17;101245.06;;;18.24
65316;BMP280;51920;53.952;10.292;2022-07-22T00:25:42;101248.22;;;18.22
65316;BMP280;51920;53.952;10.292;2022-07-22T00:28:08;101247.47;;;18.22
65316;BMP280;51920;53.952;10.292;2022-07-22T00:30:34;101246.00;;;18.17
65316;BMP280;51920;53.952;10.292;2022-07-22T00:33:00;101246.97;;;18.07
65316;BMP280;51920;53.952;10.292;2022-07-22T00:35:25;101255.06;;;18.14
65316;BMP280;51920;53.952;10.292;2022-07-22T00:37:51;101251.88;;;18.16
65316;BMP280;51920;53.952;10.292;2022-07-22T00:40:16;101248.38;;;18.15
65316;BMP280;51920;53.952;10.292;2022-07-22T00:42:42;101255.56;;;18.09
65316;BMP280;51920;53.952;10.292;2022-07-22T00:45:08;101250.25;;;17.98
65316;BMP280;51920;53.952;10.292;2022-07-22T00:47:34;101247.38;;;17.85
65316;BMP280;51920;53.952;10.292;2022-07-22T00:50:00;101245.13;;;17.80
65316;BMP280;51920;53.952;10.292;2022-07-22T00:52:26;101248.34;;;17.75
65316;BMP280;51920;53.952;10.292;2022-07-22T00:54:52;101248.44;;;17.68
65316;BMP280;51920;53.952;10.292;2022-07-22T00:57:18;101250.09;;;17.62
65316;BMP280;51920;53.952;10.292;2022-07-22T00:59:44;101249.38;;;17.58
65316;BMP280;51920;53.952;10.292;2022-07-22T01:02:09;101249.56;;;17.47
65316;BMP280;51920;53.952;10.292;2022-07-22T01:04:36;101251.09;;;17.48
65316;BMP280;51920;53.952;10.292;2022-07-22T01:07:01;101261.28;;;17.47
65316;BMP280;51920;53.952;10.292;2022-07-22T01:09:27;101260.25;;;17.41
65316;BMP280;51920;53.952;10.292;2022-07-22T01:11:52;101258.84;;;17.30
65316;BMP280;51920;53.952;10.292;2022-07-22T01:14:18;101258.53;;;17.24
65316;BMP280;51920;53.952;10.292;2022-07-22T01:16:44;101269.25;;;17.15
65316;BMP280;51920;53.952;10.292;2022-07-22T01:19:09;101262.75;;;17.01
65316;BMP280;51920;53.952;10.292;2022-07-22T01:21:35;101273.91;;;16.87
65316;BMP280;51920;53.952;10.292;2022-07-22T01:24:00;101268.44;;;16.87
65316;BMP280;51920;53.952;10.292;2022-07-22T01:26:26;101273.59;;;16.82
65316;BMP280;51920;53.952;10.292;2022-07-22T01:28:52;101273.66;;;16.78
65316;BMP280;51920;53.952;10.292;2022-07-22T01:31:18;101275.69;;;16.70
65316;BMP280;51920;53.952;10.292;2022-07-22T01:33:44;101273.00;;;16.67
65316;BMP280;51920;53.952;10.292;2022-07-22T01:36:10;101275.59;;;16.43
65316;BMP280;51920;53.952;10.292;2022-07-22T01:38:35;101276.72;;;16.49
65316;BMP280;51920;53.952;10.292;2022-07-22T01:41:01;101277.66;;;16.32
65316;BMP280;51920;53.952;10.292;2022-07-22T01:43:28;101278.41;;;16.36
65316;BMP280;51920;53.952;10.292;2022-07-22T01:45:54;101272.63;;;16.27
65316;BMP280;51920;53.952;10.292;2022-07-22T01:48:21;101283.25;;;16.21
65316;BMP280;51920;53.952;10.292;2022-07-22T01:50:47;101275.84;;;16.18
65316;BMP280;51920;53.952;10.292;2022-07-22T01:53:13;101284.06;;;16.18
65316;BMP280;51920;53.952;10.292;2022-07-22T01:55:38;101279.06;;;16.09
65316;BMP280;51920;53.952;10.292;2022-07-22T01:58:06;101286.59;;;15.98
65316;BMP280;51920;53.952;10.292;2022-07-22T02:00:33;101280.72;;;16.03
65316;BMP280;51920;53.952;10.292;2022-07-22T02:03:00;101288.16;;;15.96
65316;BMP280;51920;53.952;10.292;2022-07-22T02:05:28;101285.78;;;16.01
65316;BMP280;51920;53.952;10.292;2022-07-22T02:08:01;101287.03;;;15.93
65316;BMP280;51920;53.952;10.292;2022-07-22T02:10:30;101295.63;;;15.88
65316;BMP280;51920;53.952;10.292;2022-07-22T02:12:57;101298.50;;;15.74
65316;BMP280;51920;53.952;10.292;2022-07-22T02:15:23;101291.09;;;15.70
65316;BMP280;51920;53.952;10.292;2022-07-22T02:17:49;101298.09;;;15.75
65316;BMP280;51920;53.952;10.292;2022-07-22T02:20:14;101297.34;;;15.75
65316;BMP280;51920;53.952;10.292;2022-07-22T02:22:40;101295.72;;;15.81
65316;BMP280;51920;53.952;10.292;2022-07-22T02:25:06;101297.25;;;15.85
65316;BMP280;51920;53.952;10.292;2022-07-22T02:27:31;101291.41;;;15.80
65316;BMP280;51920;53.952;10.292;2022-07-22T02:29:57;101296.88;;;15.80
65316;BMP280;51920;53.952;10.292;2022-07-22T02:32:22;101301.28;;;15.66
65316;BMP280;51920;53.952;10.292;2022-07-22T02:34:48;101308.69;;;15.69
65316;BMP280;51920;53.952;10.292;2022-07-22T02:37:14;101302.78;;;15.75
65316;BMP280;51920;53.952;10.292;2022-07-22T02:39:39;101301.63;;;15.72
65316;BMP280;51920;53.952;10.292;2022-07-22T02:42:05;101301.63;;;15.72
65316;BMP280;51920;53.952;10.292;2022-07-22T02:44:31;101310.22;;;15.70
65316;BMP280;51920;53.952;10.292;2022-07-22T02:46:57;101307.13;;;15.68
65316;BMP280;51920;53.952;10.292;2022-07-22T02:49:27;101305.97;;;15.66
65316;BMP280;51920;53.952;10.292;2022-07-22T02:51:54;101312.63;;;15.61
65316;BMP280;51920;53.952;10.292;2022-07-22T02:54:20;101307.16;;;15.61
65316;BMP280;51920;53.952;10.292;2022-07-22T02:56:45;101314.19;;;15.62
65316;BMP280;51920;53.952;10.292;2022-07-22T02:59:10;101318.09;;;15.61
65316;BMP280;51920;53.952;10.292;2022-07-22T03:01:36;101316.13;;;15.62
65316;BMP280;51920;53.952;10.292;2022-07-22T03:04:01;101312.63;;;15.65
65316;BMP280;51920;53.952;10.292;2022-07-22T03:06:30;101319.63;;;15.66
65316;BMP280;51920;53.952;10.292;2022-07-22T03:09:03;101308.78;;;15.55
65316;BMP280;51920;53.952;10.292;2022-07-22T03:11:30;101317.72;;;15.59
65316;BMP280;51920;53.952;10.292;2022-07-22T03:13:56;101311.06;;;15.60
65316;BMP280;51920;53.952;10.292;2022-07-22T03:16:22;101315.06;;;15.48
65316;BMP280;51920;53.952;10.292;2022-07-22T03:18:47;101317.38;;;15.50
65316;BMP280;51920;53.952;10.292;2022-07-22T03:21:12;101317.38;;;15.54
65316;BMP280;51920;53.952;10.292;2022-07-22T03:23:38;101317.38;;;15.54
65316;BMP280;51920;53.952;10.292;2022-07-22T03:26:03;101319.31;;;15.53
65316;BMP280;51920;53.952;10.292;2022-07-22T03:28:29;101316.97;;;15.52
65316;BMP280;51920;53.952;10.292;2022-07-22T03:30:54;101316.59;;;15.53
65316;BMP280;51920;53.952;10.292;2022-07-22T03:33:20;101314.28;;;15.48
65316;BMP280;51920;53.952;10.292;2022-07-22T03:35:45;101319.72;;;15.48
65316;BMP280;51920;53.952;10.292;2022-07-22T03:38:13;101318.94;;;15.51
65316;BMP280;51920;53.952;10.292;2022-07-22T03:40:38;101308.81;;;15.48
65316;BMP280;51920;53.952;10.292;2022-07-22T03:43:04;101314.66;;;15.50
65316;BMP280;51920;53.952;10.292;2022-07-22T03:45:30;101309.56;;;15.52
65316;BMP280;51920;53.952;10.292;2022-07-22T03:47:56;101325.50;;;15.61
65316;BMP280;51920;53.952;10.292;2022-07-22T03:50:25;101312.63;;;15.61
65316;BMP280;51920;53.952;10.292;2022-07-22T03:52:50;101318.84;;;15.62
65316;BMP280;51920;53.952;10.292;2022-07-22T03:55:16;101325.09;;;15.66
65316;BMP280;51920;53.952;10.292;2022-07-22T03:57:43;101319.97;;;15.72
65316;BMP280;51920;53.952;10.292;2022-07-22T04:00:17;101319.56;;;15.77
65316;BMP280;51920;53.952;10.292;2022-07-22T04:02:45;101310.19;;;15.74
65316;BMP280;51920;53.952;10.292;2022-07-22T04:05:19;101316.75;;;15.87
65316;BMP280;51920;53.952;10.292;2022-07-22T04:07:44;101319.50;;;15.84
65316;BMP280;51920;53.952;10.292;2022-07-22T04:10:10;101318.25;;;15.88
65316;BMP280;51920;53.952;10.292;2022-07-22T04:12:40;101319.41;;;15.95
65316;BMP280;51920;53.952;10.292;2022-07-22T04:15:13;101302.25;;;15.90
65316;BMP280;51920;53.952;10.292;2022-07-22T04:17:38;101313.84;;;16.05
65316;BMP280;51920;53.952;10.292;2022-07-22T04:20:04;101303.34;;;16.00
65316;BMP280;51920;53.952;10.292;2022-07-22T04:22:38;101304.50;;;15.99
65316;BMP280;51920;53.952;10.292;2022-07-22T04:25:03;101314.22;;;16.07
65316;BMP280;51920;53.952;10.292;2022-07-22T04:27:29;101313.84;;;16.05
65316;BMP280;51920;53.952;10.292;2022-07-22T04:29:54;101309.19;;;16.02
65316;BMP280;51920;53.952;10.292;2022-07-22T04:32:20;101315.44;;;16.03
65316;BMP280;51920;53.952;10.292;2022-07-22T04:34:45;101305.34;;;15.96
65316;BMP280;51920;53.952;10.292;2022-07-22T04:37:11;101321.69;;;16.03
65316;BMP280;51920;53.952;10.292;2022-07-22T04:39:36;101315.38;;;16.06
65316;BMP280;51920;53.952;10.292;2022-07-22T04:42:02;101320.06;;;16.09
65316;BMP280;51920;53.952;10.292;2022-07-22T04:44:28;101306.03;;;16.07
65316;BMP280;51920;53.952;10.292;2022-07-22T04:46:55;101319.94;;;16.24
65316;BMP280;51920;53.952;10.292;2022-07-22T04:49:20;101316.38;;;16.30
65316;BMP280;51920;53.952;10.292;2022-07-22T04:51:45;101320.56;;;16.39
65316;BMP280;51920;53.952;10.292;2022-07-22T04:54:19;101316.31;;;16.34
65316;BMP280;51920;53.952;10.292;2022-07-22T04:56:45;101320.06;;;16.51
65316;BMP280;51920;53.952;10.292;2022-07-22T04:59:11;101317.38;;;16.47
65316;BMP280;51920;53.952;10.292;2022-07-22T05:01:36;101315.72;;;16.53
65316;BMP280;51920;53.952;10.292;2022-07-22T05:04:02;101330.91;;;16.62
65316;BMP280;51920;53.952;10.292;2022-07-22T05:06:28;101315.44;;;16.48
65316;BMP280;51920;53.952;10.292;2022-07-22T05:08:54;101332.88;;;16.57
65316;BMP280;51920;53.952;10.292;2022-07-22T05:11:19;101323.47;;;16.58
65316;BMP280;51920;53.952;10.292;2022-07-22T05:13:46;101322.06;;;16.47
65316;BMP280;51920;53.952;10.292;2022-07-22T05:16:12;101324.03;;;16.46
65316;BMP280;51920;53.952;10.292;2022-07-22T05:18:38;101318.94;;;16.45
65316;BMP280;51920;53.952;10.292;2022-07-22T05:21:06;101321.28;;;16.46
65316;BMP280;51920;53.952;10.292;2022-07-22T05:23:32;101301.88;;;16.33
65316;BMP280;51920;53.952;10.292;2022-07-22T05:25:59;101328.94;;;16.58
65316;BMP280;51920;53.952;10.292;2022-07-22T05:28:25;101326.66;;;16.57
65316;BMP280;51920;53.952;10.292;2022-07-22T05:30:50;101329.78;;;16.55
65316;BMP280;51920;53.952;10.292;2022-07-22T05:33:16;101326.16;;;16.66
65316;BMP280;51920;53.952;10.292;2022-07-22T05:36:01;101342.97;;;16.64
65316;BMP280;51920;53.952;10.292;2022-07-22T05:38:35;101323.47;;;16.58
65316;BMP280;51920;53.952;10.292;2022-07-22T05:41:01;101326.59;;;16.61
65316;BMP280;51920;53.952;10.292;2022-07-22T05:43:27;101340.59;;;16.66
65316;BMP280;51920;53.952;10.292;2022-07-22T05:45:53;101337.34;;;16.78
65316;BMP280;51920;53.952;10.292;2022-07-22T05:48:20;101327.53;;;16.81
65316;BMP280;51920;53.952;10.292;2022-07-22T05:50:46;101336.53;;;16.82
65316;BMP280;51920;53.952;10.292;2022-07-22T05:53:12;101329.47;;;16.80
65316;BMP280;51920;53.952;10.292;2022-07-22T05:55:37;101336.41;;;16.92
65316;BMP280;51920;53.952;10.292;2022-07-22T05:58:02;101328.41;;;16.74
65316;BMP280;51920;53.952;10.292;2022-07-22T06:00:28;101339.63;;;16.84
65316;BMP280;51920;53.952;10.292;2022-07-22T06:02:54;101334.19;;;16.80
65316;BMP280;51920;53.952;10.292;2022-07-22T06:05:20;101346.56;;;16.92
65316;BMP280;51920;53.952;10.292;2022-07-22T06:07:47;101343.44;;;16.93
65316;BMP280;51920;53.952;10.292;2022-07-22T06:10:22;101345.78;;;16.91
65316;BMP280;51920;53.952;10.292;2022-07-22T06:12:47;101348.06;;;16.96
65316;BMP280;51920;53.952;10.292;2022-07-22T06:15:13;101343.88;;;16.88
65316;BMP280;51920;53.952;10.292;2022-07-22T06:17:39;101349.69;;;16.90
65316;BMP280;51920;53.952;10.292;2022-07-22T06:20:05;101347.72;;;16.94
65316;BMP280;51920;53.952;10.292;2022-07-22T06:22:31;101346.63;;;16.88
65316;BMP280;51920;53.952;10.292;2022-07-22T06:24:56;101343.38;;;16.97
65316;BMP280;51920;53.952;10.292;2022-07-22T06:27:22;101349.88;;;17.07
65316;BMP280;51920;53.952;10.292;2022-07-22T06:29:49;101351.09;;;17.06
65316;BMP280;51920;53.952;10.292;2022-07-22T06:32:14;101345.13;;;17.11
65316;BMP280;51920;53.952;10.292;2022-07-22T06:34:40;101351.63;;;17.24
65316;BMP280;51920;53.952;10.292;2022-07-22T06:37:06;101357.78;;;17.32
65316;BMP280;51920;53.952;10.292;2022-07-22T06:39:33;101355.28;;;17.14
65316;BMP280;51920;53.952;10.292;2022-07-22T06:42:13;101360.94;;;17.30
65316;BMP280;51920;53.952;10.292;2022-07-22T06:44:48;101363.22;;;17.35
65316;BMP280;51920;53.952;10.292;2022-07-22T06:47:33;101354.84;;;17.46
65316;BMP280;51920;53.952;10.292;2022-07-22T06:50:05;101357.72;;;17.66
65316;BMP280;51920;53.952;10.292;2022-07-22T06:52:31;101358.09;;;17.64
65316;BMP280;51920;53.952;10.292;2022-07-22T06:54:59;101352.47;;;17.99
65316;BMP280;51920;53.952;10.292;2022-07-22T06:57:29;101347.94;;;18.12
65316;BMP280;51920;53.952;10.292;2022-07-22T06:59:54;101355.31;;;18.39
65316;BMP280;51920;53.952;10.292;2022-07-22T07:02:20;101350.91;;;18.21
65316;BMP280;51920;53.952;10.292;2022-07-22T07:04:46;101359.59;;;18.16
65316;BMP280;51920;53.952;10.292;2022-07-22T07:07:11;101351.91;;;18.07
65316;BMP280;51920;53.952;10.292;2022-07-22T07:09:46;101352.28;;;18.09
65316;BMP280;51920;53.952;10.292;2022-07-22T07:12:21;101348.88;;;18.02
65316;BMP280;51920;53.952;10.292;2022-07-22T07:15:05;101361.66;;;18.12
65316;BMP280;51920;53.952;10.292;2022-07-22T07:17:31;101357.44;;;18.71
65316;BMP280;51920;53.952;10.292;2022-07-22T07:19:56;101358.41;;;19.17
65316;BMP280;51920;53.952;10.292;2022-07-22T07:22:22;101359.59;;;18.99
65316;BMP280;51920;53.952;10.292;2022-07-22T07:24:47;101361.56;;;18.79
65316;BMP280;51920;53.952;10.292;2022-07-22T07:27:13;101353.34;;;18.39
65316;BMP280;51920;53.952;10.292;2022-07-22T07:29:39;101372.66;;;18.32
65316;BMP280;51920;53.952;10.292;2022-07-22T07:32:06;101373.31;;;18.16
65316;BMP280;51920;53.952;10.292;2022-07-22T07:34:32;101379.16;;;18.18
65316;BMP280;51920;53.952;10.292;2022-07-22T07:36:57;101374.47;;;17.95
65316;BMP280;51920;53.952;10.292;2022-07-22T07:39:23;101373.22;;;18.00
65316;BMP280;51920;53.952;10.292;2022-07-22T07:41:49;101372.78;;;18.01
65316;BMP280;51920;53.952;10.292;2022-07-22T07:44:16;101388.94;;;17.96
65316;BMP280;51920;53.952;10.292;2022-07-22T07:46:42;101384.97;;;18.00
65316;BMP280;51920;53.952;10.292;2022-07-22T07:49:07;101391.81;;;18.12
65316;BMP280;51920;53.952;10.292;2022-07-22T07:51:34;101393.41;;;18.09
65316;BMP280;51920;53.952;10.292;2022-07-22T07:54:00;101375.50;;;18.05
65316;BMP280;51920;53.952;10.292;2022-07-22T07:56:26;101392.41;;;18.23
65316;BMP280;51920;53.952;10.292;2022-07-22T07:58:51;101382.38;;;18.13
65316;BMP280;51920;53.952;10.292;2022-07-22T08:01:16;101389.06;;;18.12
65316;BMP280;51920;53.952;10.292;2022-07-22T08:03:42;101391.38;;;18.37
65316;BMP280;51920;53.952;10.292;2022-07-22T08:06:08;101386.59;;;18.41
65316;BMP280;51920;53.952;10.292;2022-07-22T08:08:33;101389.75;;;18.40
65316;BMP280;51920;53.952;10.292;2022-07-22T08:11:05;101383.16;;;18.57
65316;BMP280;51920;53.952;10.292;2022-07-22T08:13:31;101390.44;;;18.67
65316;BMP280;51920;53.952;10.292;2022-07-22T08:16:05;101393.94;;;18.68
65316;BMP280;51920;53.952;10.292;2022-07-22T08:18:32;101398.94;;;18.53
65316;BMP280;51920;53.952;10.292;2022-07-22T08:20:58;101395.44;;;18.29
65316;BMP280;51920;53.952;10.292;2022-07-22T08:23:48;101400.50;;;18.30
65316;BMP280;51920;53.952;10.292;2022-07-22T08:26:13;101402.81;;;18.75
65316;BMP280;51920;53.952;10.292;2022-07-22T08:28:39;101405.06;;;19.37
65316;BMP280;51920;53.952;10.292;2022-07-22T08:31:04;101390.47;;;19.56
65316;BMP280;51920;53.952;10.292;2022-07-22T08:33:30;101399.00;;;19.45
65316;BMP280;51920;53.952;10.292;2022-07-22T08:35:56;101406.28;;;19.52
65316;BMP280;51920;53.952;10.292;2022-07-22T08:38:21;101410.34;;;19.11
65316;BMP280;51920;53.952;10.292;2022-07-22T08:40:48;101414.50;;;18.99
65316;BMP280;51920;53.952;10.292;2022-07-22T08:43:13;101419.72;;;18.94
65316;BMP280;51920;53.952;10.292;2022-07-22T08:45:40;101408.94;;;19.03
65316;BMP280;51920;53.952;10.292;2022-07-22T08:48:06;101405.28;;;19.10
65316;BMP280;51920;53.952;10.292;2022-07-22T08:50:43;101423.50;;;19.20
65316;BMP280;51920;53.952;10.292;2022-07-22T08:53:20;101423.00;;;19.25
65316;BMP280;51920;53.952;10.292;2022-07-22T08:55:47;101422.94;;;19.09
65316;BMP280;51920;53.952;10.292;2022-07-22T08:58:14;101419.34;;;19.12
65316;BMP280;51920;53.952;10.292;2022-07-22T09:00:40;101434.00;;;19.05
65316;BMP280;51920;53.952;10.292;2022-07-22T09:03:20;101423.44;;;19.23
65316;BMP280;51920;53.952;10.292;2022-07-22T09:05:49;101425.25;;;19.10
65316;BMP280;51920;53.952;10.292;2022-07-22T09:08:16;101426.78;;;19.31
65316;BMP280;51920;53.952;10.292;2022-07-22T09:11:17;101430.13;;;19.39
65316;BMP280;51920;53.952;10.292;2022-07-22T09:14:19;101431.00;;;19.36
65316;BMP280;51920;53.952;10.292;2022-07-22T09:17:03;101427.16;;;19.49
65316;BMP280;51920;53.952;10.292;2022-07-22T09:19:38;101437.16;;;19.23
65316;BMP280;51920;53.952;10.292;2022-07-22T09:22:37;101439.09;;;19.43
65316;BMP280;51920;53.952;10.292;2022-07-22T09:25:17;101442.88;;;19.49
65316;BMP280;51920;53.952;10.292;2022-07-22T09:30:57;101443.38;;;19.08
65316;BMP280;51920;53.952;10.292;2022-07-22T09:33:23;101443.22;;;19.15
65316;BMP280;51920;53.952;10.292;2022-07-22T09:36:04;101417.03;;;18.90
65316;BMP280;51920;53.952;10.292;2022-07-22T09:38:32;101442.00;;;19.36
65316;BMP280;51920;53.952;10.292;2022-07-22T09:41:01;101439.13;;;19.23
65316;BMP280;51920;53.952;10.292;2022-07-22T09:43:27;101442.72;;;19.00
65316;BMP280;51920;53.952;10.292;2022-07-22T09:45:58;101448.78;;;19.11
65316;BMP280;51920;53.952;10.292;2022-07-22T09:48:42;101456.06;;;19.38
65316;BMP280;51920;53.952;10.292;2022-07-22T09:51:27;101450.44;;;19.61
65316;BMP280;51920;53.952;10.292;2022-07-22T09:54:16;101448.44;;;19.82
65316;BMP280;51920;53.952;10.292;2022-07-22T09:56:42;101453.75;;;19.89
65316;BMP280;51920;53.952;10.292;2022-07-22T09:59:08;101454.59;;;19.69
65316;BMP280;51920;53.952;10.292;2022-07-22T10:01:39;101453.00;;;19.36
65316;BMP280;51920;53.952;10.292;2022-07-22T10:04:05;101464.38;;;19.54
65316;BMP280;51920;53.952;10.292;2022-07-22T10:06:32;101467.69;;;19.45
65316;BMP280;51920;53.952;10.292;2022-07-22T10:08:58;101462.78;;;19.53
65316;BMP280;51920;53.952;10.292;2022-07-22T10:11:25;101467.84;;;19.75
65316;BMP280;51920;53.952;10.292;2022-07-22T10:13:51;101464.31;;;20.07
65316;BMP280;51920;53.952;10.292;2022-07-22T10:16:17;101466.94;;;20.43
65316;BMP280;51920;53.952;10.292;2022-07-22T10:18:45;101459.31;;;20.34
65316;BMP280;51920;53.952;10.292;2022-07-22T10:21:12;101469.81;;;20.23
65316;BMP280;51920;53.952;10.292;2022-07-22T10:34:42;101468.28;;;19.89
65316;BMP280;51920;53.952;10.292;2022-07-22T10:37:36;101471.44;;;19.88
65316;BMP280;51920;53.952;10.292;2022-07-22T10:40:24;101471.94;;;19.83
65316;BMP280;51920;53.952;10.292;2022-07-22T10:45:24;101475.06;;;20.01
65316;BMP280;51920;53.952;10.292;2022-07-22T10:47:58;101470.06;;;19.96
65316;BMP280;51920;53.952;10.292;2022-07-22T10:53:21;101473.84;;;19.86
65316;BMP280;51920;53.952;10.292;2022-07-22T10:56:04;101469.41;;;20.08
65316;BMP280;51920;53.952;10.292;2022-07-22T11:01:04;101479.84;;;19.97
65316;BMP280;51920;53.952;10.292;2022-07-22T11:03:31;101478.91;;;20.20
65316;BMP280;51920;53.952;10.292;2022-07-22T11:06:19;101474.34;;;19.97
65316;BMP280;51920;53.952;10.292;2022-07-22T11:08:48;101474.63;;;20.03
65316;BMP280;51920;53.952;10.292;2022-07-22T11:11:14;101472.47;;;20.10
65316;BMP280;51920;53.952;10.292;2022-07-22T11:13:41;101472.28;;;20.34
65316;BMP280;51920;53.952;10.292;2022-07-22T11:16:18;101472.94;;;20.54
65316;BMP280;51920;53.952;10.292;2022-07-22T11:18:59;101476.41;;;20.42
65316;BMP280;51920;53.952;10.292;2022-07-22T11:21:27;101472.28;;;20.92
65316;BMP280;51920;53.952;10.292;2022-07-22T11:23:55;101477.00;;;20.79
65316;BMP280;51920;53.952;10.292;2022-07-22T11:26:39;101474.78;;;20.74
65316;BMP280;51920;53.952;10.292;2022-07-22T11:29:05;101473.94;;;20.60
65316;BMP280;51920;53.952;10.292;2022-07-22T11:31:31;101464.88;;;20.31
65316;BMP280;51920;53.952;10.292;2022-07-22T11:34:11;101474.69;;;20.61
65316;BMP280;51920;53.952;10.292;2022-07-22T11:36:39;101466.63;;;20.25
65316;BMP280;51920;53.952;10.292;2022-07-22T11:39:06;101468.34;;;20.18
65316;BMP280;51920;53.952;10.292;2022-07-22T11:41:32;101468.34;;;20.18
65316;BMP280;51920;53.952;10.292;2022-07-22T11:43:58;101464.97;;;20.27
65316;BMP280;51920;53.952;10.292;2022-07-22T11:46:25;101470.56;;;20.24
65316;BMP280;51920;53.952;10.292;2022-07-22T11:48:52;101459.09;;;20.12
65316;BMP280;51920;53.952;10.292;2022-07-22T11:51:18;101468.88;;;20.13
65316;BMP280;51920;53.952;10.292;2022-07-22T11:53:44;101472.06;;;20.12
65316;BMP280;51920;53.952;10.292;2022-07-22T11:56:10;101479.16;;;20.09
65316;BMP280;51920;53.952;10.292;2022-07-22T11:58:45;101477.13;;;19.81
65316;BMP280;51920;53.952;10.292;2022-07-22T12:01:17;101478.22;;;20.32
65316;BMP280;51920;53.952;10.292;2022-07-22T12:03:52;101473.34;;;20.98
65316;BMP280;51920;53.952;10.292;2022-07-22T12:06:20;101471.16;;;21.19
65316;BMP280;51920;53.952;10.292;2022-07-22T12:09:30;101474.06;;;20.99
65316;BMP280;51920;53.952;10.292;2022-07-22T12:11:56;101461.50;;;20.85
65316;BMP280;51920;53.952;10.292;2022-07-22T12:14:33;101472.50;;;20.85
65316;BMP280;51920;53.952;10.292;2022-07-22T12:17:02;101470.56;;;20.98
65316;BMP280;51920;53.952;10.292;2022-07-22T12:19:29;101484.16;;;20.76
65316;BMP280;51920;53.952;10.292;2022-07-22T12:22:40;101483.38;;;20.76
65316;BMP280;51920;53.952;10.292;2022-07-22T12:24:46;101476.66;;;20.77
65316;BMP280;51920;53.952;10.292;2022-07-22T12:27:15;101475.03;;;20.79
65316;BMP280;51920;53.952;10.292;2022-07-22T12:32:08;101459.56;;;20.82
65316;BMP280;51920;53.952;10.292;2022-07-22T12:37:26;101464.44;;;20.78
65316;BMP280;51920;53.952;10.292;2022-07-22T12:42:21;101460.22;;;21.02
65316;BMP280;51920;53.952;10.292;2022-07-22T12:44:58;101464.59;;;21.00
65316;BMP280;51920;53.952;10.292;2022-07-22T12:47:53;101465.06;;;20.69
65316;BMP280;51920;53.952;10.292;2022-07-22T12:53:13;101470.19;;;20.54
65316;BMP280;51920;53.952;10.292;2022-07-22T12:58:06;101465.66;;;20.60
65316;BMP280;51920;53.952;10.292;2022-07-22T13:00:43;101455.44;;;20.90
65316;BMP280;51920;53.952;10.292;2022-07-22T13:03:08;101455.03;;;21.04
65316;BMP280;51920;53.952;10.292;2022-07-22T13:05:34;101453.28;;;21.10
65316;BMP280;51920;53.952;10.292;2022-07-22T13:08:00;101462.97;;;21.28
65316;BMP280;51920;53.952;10.292;2022-07-22T13:10:26;101462.22;;;21.40
65316;BMP280;51920;53.952;10.292;2022-07-22T13:12:52;101465.53;;;21.22
65316;BMP280;51920;53.952;10.292;2022-07-22T13:15:19;101465.84;;;21.37
65316;BMP280;51920;53.952;10.292;2022-07-22T13:17:45;101459.91;;;21.26
65316;BMP280;51920;53.952;10.292;2022-07-22T13:20:12;101459.13;;;21.25
65316;BMP280;51920;53.952;10.292;2022-07-22T13:22:45;101457.56;;;21.24
65316;BMP280;51920;53.952;10.292;2022-07-22T13:25:11;101448.44;;;21.15
65316;BMP280;51920;53.952;10.292;2022-07-22T13:27:37;101450.09;;;21.38
65316;BMP280;51920;53.952;10.292;2022-07-22T13:30:03;101458.72;;;21.27
65316;BMP280;51920;53.952;10.292;2022-07-22T13:32:28;101441.13;;;21.08
65316;BMP280;51920;53.952;10.292;2022-07-22T13:34:54;101454.63;;;21.31
65316;BMP280;51920;53.952;10.292;2022-07-22T13:37:20;101455.91;;;21.01
65316;BMP280;51920;53.952;10.292;2022-07-22T13:39:46;101451.44;;;20.91
65316;BMP280;51920;53.952;10.292;2022-07-22T13:42:12;101446.75;;;20.92
65316;BMP280;51920;53.952;10.292;2022-07-22T13:44:38;101450.50;;;21.10
65316;BMP280;51920;53.952;10.292;2022-07-22T13:47:04;101450.91;;;20.83
65316;BMP280;51920;53.952;10.292;2022-07-22T13:49:30;101450.91;;;20.96
65316;BMP280;51920;53.952;10.292;2022-07-22T13:51:55;101442.41;;;20.78
65316;BMP280;51920;53.952;10.292;2022-07-22T13:54:21;101444.50;;;20.86
65316;BMP280;51920;53.952;10.292;2022-07-22T13:56:46;101447.94;;;20.91
65316;BMP280;51920;53.952;10.292;2022-07-22T13:59:13;101450.75;;;21.16
65316;BMP280;51920;53.952;10.292;2022-07-22T14:01:39;101453.34;;;21.07
65316;BMP280;51920;53.952;10.292;2022-07-22T14:04:04;101450.56;;;20.94
65316;BMP280;51920;53.952;10.292;2022-07-22T14:06:32;101449.25;;;20.86
65316;BMP280;51920;53.952;10.292;2022-07-22T14:08:57;101451.88;;;20.77
65316;BMP280;51920;53.952;10.292;2022-07-22T14:11:22;101451.66;;;20.84
65316;BMP280;51920;53.952;10.292;2022-07-22T14:13:48;101455.84;;;20.76
65316;BMP280;51920;53.952;10.292;2022-07-22T14:16:13;101448.78;;;20.75
65316;BMP280;51920;53.952;10.292;2022-07-22T14:19:14;101450.72;;;20.61
65316;BMP280;51920;53.952;10.292;2022-07-22T14:21:42;101445.06;;;20.94
65316;BMP280;51920;53.952;10.292;2022-07-22T14:24:09;101444.63;;;20.83
65316;BMP280;51920;53.952;10.292;2022-07-22T14:26:35;101453.50;;;20.74